sensor_id;sensor_type;location;lat;lon;timestamp;temperature;humidity
42099;DHT22;27758;55.900;8.516;2023-07-20T00:01:14;14.20;99.90
42099;DHT22;27758;55.900;8.516;2023-07-20T00:03:40;14.10;99.90
42099;DHT22;27758;55.900;8.516;2023-07-20T00:06:06;14.10;99.90
42099;DHT22;27758;55.900;8.516;2023-07-20T00:08:32;14.10;99.90
42099;DHT22;27758;55.900;8.516;2023-07-20T00:10:58;14.00;99.90
42099;DHT22;27758;55.900;8.516;2023-07-20T00:13:24;13.90;99.90
42099;DHT22;27758;55.900;8.516;2023-07-20T00:15:50;14.00;99.90
42099;DHT22;27758;55.900;8.516;2023-07-20T00:18:16;14.00;99.90
42099;DHT22;27758;55.900;8.516;2023-07-20T00:20:42;14.00;99.90
42099;DHT22;27758;55.900;8.516;2023-07-20T00:23:07;13.90;99.90
42099;DHT22;27758;55.900;8.516;2023-07-20T00:25:34;13.90;99.90
42099;DHT22;27758;55.900;8.516;2023-07-20T00:28:00;13.80;99.90
42099;DHT22;27758;55.900;8.516;2023-07-20T00:30:26;13.90;99.90
42099;DHT22;27758;55.900;8.516;2023-07-20T00:32:52;14.00;99.90
42099;DHT22;27758;55.900;8.516;2023-07-20T00:35:19;14.00;99.90
42099;DHT22;27758;55.900;8.516;2023-07-20T00:37:45;14.10;99.90
42099;DHT22;27758;55.900;8.516;2023-07-20T00:40:10;14.10;99.90
42099;DHT22;27758;55.900;8.516;2023-07-20T00:42:36;14.10;99.90
42099;DHT22;27758;55.900;8.516;2023-07-20T00:45:02;14.10;99.90
42099;DHT22;27758;55.900;8.516;2023-07-20T00:47:28;14.20;99.90
42099;DHT22;27758;55.900;8.516;2023-07-20T00:49:54;14.10;99.90
42099;DHT22;27758;55.900;8.516;2023-07-20T00:52:22;14.10;99.90
42099;DHT22;27758;55.900;8.516;2023-07-20T00:54:49;14.10;99.90
42099;DHT22;27758;55.900;8.516;2023-07-20T00:57:15;14.10;99.90
42099;DHT22;27758;55.900;8.516;2023-07-20T00:59:42;14.10;99.90
42099;DHT22;27758;55.900;8.516;2023-07-20T01:02:09;14.10;99.90
42099;DHT22;27758;55.900;8.516;2023-07-20T01:04:35;14.20;99.90
42099;DHT22;27758;55.900;8.516;2023-07-20T01:10:06;14.20;99.90
42099;DHT22;27758;55.900;8.516;2023-07-20T01:12:46;14.20;99.90
42099;DHT22;27758;55.900;8.516;2023-07-20T01:15:13;14.10;99.90
42099;DHT22;27758;55.900;8.516;2023-07-20T01:17:38;14.10;99.90
42099;DHT22;27758;55.900;8.516;2023-07-20T01:20:08;14.10;99.90
42099;DHT22;27758;55.900;8.516;2023-07-20T01:33:42;13.90;99.90
42099;DHT22;27758;55.900;8.516;2023-07-20T01:36:08;13.90;99.90
42099;DHT22;27758;55.900;8.516;2023-07-20T01:38:36;13.90;99.90
42099;DHT22;27758;55.900;8.516;2023-07-20T01:41:03;13.90;99.90
42099;DHT22;27758;55.900;8.516;2023-07-20T01:43:29;13.80;99.90
42099;DHT22;27758;55.900;8.516;2023-07-20T01:45:54;13.80;99.90
42099;DHT22;27758;55.900;8.516;2023-07-20T01:48:23;13.80;99.90
42099;DHT22;27758;55.900;8.516;2023-07-20T01:50:48;13.80;99.90
42099;DHT22;27758;55.900;8.516;2023-07-20T01:53:14;13.80;99.90
42099;DHT22;27758;55.900;8.516;2023-07-20T01:55:40;13.90;99.90
42099;DHT22;27758;55.900;8.516;2023-07-20T01:58:05;13.90;99.90
42099;DHT22;27758;55.900;8.516;2023-07-20T02:00:32;13.90;99.90
42099;DHT22;27758;55.900;8.516;2023-07-20T02:02:57;13.80;99.90
42099;DHT22;27758;55.900;8.516;2023-07-20T02:05:23;13.90;99.90
42099;DHT22;27758;55.900;8.516;2023-07-20T02:07:50;13.80;99.90
42099;DHT22;27758;55.900;8.516;2023-07-20T02:10:15;13.90;99.90
42099;DHT22;27758;55.900;8.516;2023-07-20T02:12:41;13.80;99.90
42099;DHT22;27758;55.900;8.516;2023-07-20T02:15:07;13.80;99.90
42099;DHT22;27758;55.900;8.516;2023-07-20T02:17:33;13.80;99.90
42099;DHT22;27758;55.900;8.516;2023-07-20T02:19:59;13.80;99.90
42099;DHT22;27758;55.900;8.516;2023-07-20T02:22:25;13.80;99.90
42099;DHT22;27758;55.900;8.516;2023-07-20T02:24:51;13.90;99.90
42099;DHT22;27758;55.900;8.516;2023-07-20T02:27:18;13.80;99.90
42099;DHT22;27758;55.900;8.516;2023-07-20T02:29:44;13.80;99.90
42099;DHT22;27758;55.900;8.516;2023-07-20T02:32:10;13.80;99.90
42099;DHT22;27758;55.900;8.516;2023-07-20T02:34:36;13.80;99.90
42099;DHT22;27758;55.900;8.516;2023-07-20T02:37:02;13.80;99.90
42099;DHT22;27758;55.900;8.516;2023-07-20T02:39:28;13.80;99.90
42099;DHT22;27758;55.900;8.516;2023-07-20T02:41:54;13.90;99.90
42099;DHT22;27758;55.900;8.516;2023-07-20T02:44:20;14.00;99.90
42099;DHT22;27758;55.900;8.516;2023-07-20T02:46:46;13.90;99.90
42099;DHT22;27758;55.900;8.516;2023-07-20T02:49:12;14.00;99.90
42099;DHT22;27758;55.900;8.516;2023-07-20T02:51:37;14.00;99.90
42099;DHT22;27758;55.900;8.516;2023-07-20T02:54:03;14.00;99.90
42099;DHT22;27758;55.900;8.516;2023-07-20T02:56:29;14.00;99.90
42099;DHT22;27758;55.900;8.516;2023-07-20T02:58:55;14.00;99.90
42099;DHT22;27758;55.900;8.516;2023-07-20T03:01:20;13.90;99.90
42099;DHT22;27758;55.900;8.516;2023-07-20T03:03:46;14.00;99.90
42099;DHT22;27758;55.900;8.516;2023-07-20T03:06:16;14.00;99.90
42099;DHT22;27758;55.900;8.516;2023-07-20T03:08:43;14.00;99.90
42099;DHT22;27758;55.900;8.516;2023-07-20T03:11:13;13.90;99.90
42099;DHT22;27758;55.900;8.516;2023-07-20T03:13:41;13.90;99.90
42099;DHT22;27758;55.900;8.516;2023-07-20T03:16:08;13.80;99.90
42099;DHT22;27758;55.900;8.516;2023-07-20T03:18:37;13.80;99.90
42099;DHT22;27758;55.900;8.516;2023-07-20T03:21:04;13.80;99.90
42099;DHT22;27758;55.900;8.516;2023-07-20T03:23:30;13.70;99.90
42099;DHT22;27758;55.900;8.516;2023-07-20T03:25:56;13.70;99.90
42099;DHT22;27758;55.900;8.516;2023-07-20T03:28:22;13.70;99.90
42099;DHT22;27758;55.900;8.516;2023-07-20T03:30:53;13.80;99.90
42099;DHT22;27758;55.900;8.516;2023-07-20T03:33:21;13.80;99.90
42099;DHT22;27758;55.900;8.516;2023-07-20T03:35:47;13.80;99.90
42099;DHT22;27758;55.900;8.516;2023-07-20T03:38:12;13.80;99.90
42099;DHT22;27758;55.900;8.516;2023-07-20T03:40:38;13.70;99.90
42099;DHT22;27758;55.900;8.516;2023-07-20T03:43:04;13.70;99.90
42099;DHT22;27758;55.900;8.516;2023-07-20T03:45:29;13.70;99.90
42099;DHT22;27758;55.900;8.516;2023-07-20T03:47:55;13.70;99.90
42099;DHT22;27758;55.900;8.516;2023-07-20T03:50:21;13.60;99.90
42099;DHT22;27758;55.900;8.516;2023-07-20T03:52:47;13.70;99.90
42099;DHT22;27758;55.900;8.516;2023-07-20T03:55:13;13.60;99.90
42099;DHT22;27758;55.900;8.516;2023-07-20T03:57:38;13.70;99.90
42099;DHT22;27758;55.900;8.516;2023-07-20T04:00:05;13.70;99.90
42099;DHT22;27758;55.900;8.516;2023-07-20T04:02:33;13.60;99.90
42099;DHT22;27758;55.900;8.516;2023-07-20T04:04:59;13.70;99.90
42099;DHT22;27758;55.900;8.516;2023-07-20T04:07:24;13.60;99.90
42099;DHT22;27758;55.900;8.516;2023-07-20T04:09:50;13.60;99.90
42099;DHT22;27758;55.900;8.516;2023-07-20T04:12:16;13.70;99.90
42099;DHT22;27758;55.900;8.516;2023-07-20T04:14:41;13.70;99.90
42099;DHT22;27758;55.900;8.516;2023-07-20T04:17:07;13.70;99.90
42099;DHT22;27758;55.900;8.516;2023-07-20T04:19:33;13.70;99.90
42099;DHT22;27758;55.900;8.516;2023-07-20T04:21:59;13.80;99.90
42099;DHT22;27758;55.900;8.516;2023-07-20T04:24:24;13.80;99.90
42099;DHT22;27758;55.900;8.516;2023-07-20T04:26:50;13.80;99.90
42099;DHT22;27758;55.900;8.516;2023-07-20T04:29:16;13.80;99.90
42099;DHT22;27758;55.900;8.516;2023-07-20T04:31:48;13.90;99.90
42099;DHT22;27758;55.900;8.516;2023-07-20T04:34:13;13.90;99.90
42099;DHT22;27758;55.900;8.516;2023-07-20T04:36:39;13.90;99.90
42099;DHT22;27758;55.900;8.516;2023-07-20T04:39:05;14.00;99.90
42099;DHT22;27758;55.900;8.516;2023-07-20T04:41:33;14.00;99.90
42099;DHT22;27758;55.900;8.516;2023-07-20T04:43:59;14.10;99.90
42099;DHT22;27758;55.900;8.516;2023-07-20T04:46:25;14.30;99.90
42099;DHT22;27758;55.900;8.516;2023-07-20T04:48:51;14.40;99.90
42099;DHT22;27758;55.900;8.516;2023-07-20T04:51:16;14.60;99.90
42099;DHT22;27758;55.900;8.516;2023-07-20T04:53:46;14.70;99.90
42099;DHT22;27758;55.900;8.516;2023-07-20T04:56:12;14.70;99.90
42099;DHT22;27758;55.900;8.516;2023-07-20T04:58:38;14.80;99.90
42099;DHT22;27758;55.900;8.516;2023-07-20T05:01:04;14.90;99.90
42099;DHT22;27758;55.900;8.516;2023-07-20T05:03:29;14.90;99.90
42099;DHT22;27758;55.900;8.516;2023-07-20T05:05:55;15.00;99.90
42099;DHT22;27758;55.900;8.516;2023-07-20T05:08:21;15.00;99.90
42099;DHT22;27758;55.900;8.516;2023-07-20T05:10:47;15.00;99.90
42099;DHT22;27758;55.900;8.516;2023-07-20T05:13:13;14.90;99.90
42099;DHT22;27758;55.900;8.516;2023-07-20T05:15:39;14.80;99.90
42099;DHT22;27758;55.900;8.516;2023-07-20T05:18:05;14.70;99.90
42099;DHT22;27758;55.900;8.516;2023-07-20T05:20:31;14.80;99.90
42099;DHT22;27758;55.900;8.516;2023-07-20T05:22:59;14.70;99.90
42099;DHT22;27758;55.900;8.516;2023-07-20T05:25:24;14.80;99.90
42099;DHT22;27758;55.900;8.516;2023-07-20T05:27:51;14.90;99.90
42099;DHT22;27758;55.900;8.516;2023-07-20T05:30:17;14.80;99.90
42099;DHT22;27758;55.900;8.516;2023-07-20T05:32:44;14.90;99.90
42099;DHT22;27758;55.900;8.516;2023-07-20T05:35:13;14.90;99.90
42099;DHT22;27758;55.900;8.516;2023-07-20T05:37:39;14.90;99.90
42099;DHT22;27758;55.900;8.516;2023-07-20T05:40:06;14.90;99.90
42099;DHT22;27758;55.900;8.516;2023-07-20T05:42:33;15.00;99.90
42099;DHT22;27758;55.900;8.516;2023-07-20T05:44:59;15.00;99.90
42099;DHT22;27758;55.900;8.516;2023-07-20T05:47:25;15.30;99.90
42099;DHT22;27758;55.900;8.516;2023-07-20T05:49:50;15.40;99.90
42099;DHT22;27758;55.900;8.516;2023-07-20T05:52:16;15.30;99.90
42099;DHT22;27758;55.900;8.516;2023-07-20T05:54:42;15.40;99.90
42099;DHT22;27758;55.900;8.516;2023-07-20T05:57:08;15.40;99.90
42099;DHT22;27758;55.900;8.516;2023-07-20T05:59:33;15.50;99.90
42099;DHT22;27758;55.900;8.516;2023-07-20T06:01:59;15.60;99.90
42099;DHT22;27758;55.900;8.516;2023-07-20T06:04:25;15.70;99.90
42099;DHT22;27758;55.900;8.516;2023-07-20T06:06:50;16.00;99.90
42099;DHT22;27758;55.900;8.516;2023-07-20T06:09:16;16.20;99.90
42099;DHT22;27758;55.900;8.516;2023-07-20T06:11:42;16.40;99.90
42099;DHT22;27758;55.900;8.516;2023-07-20T06:14:07;16.50;99.90
42099;DHT22;27758;55.900;8.516;2023-07-20T06:16:33;16.60;99.90
42099;DHT22;27758;55.900;8.516;2023-07-20T06:19:00;16.70;99.90
42099;DHT22;27758;55.900;8.516;2023-07-20T06:21:26;16.50;99.90
42099;DHT22;27758;55.900;8.516;2023-07-20T06:23:52;16.50;99.90
42099;DHT22;27758;55.900;8.516;2023-07-20T06:26:17;16.40;99.90
42099;DHT22;27758;55.900;8.516;2023-07-20T06:28:43;16.40;99.90
42099;DHT22;27758;55.900;8.516;2023-07-20T06:31:12;16.40;99.90
42099;DHT22;27758;55.900;8.516;2023-07-20T06:33:38;16.30;99.90
42099;DHT22;27758;55.900;8.516;2023-07-20T06:36:04;16.30;99.90
42099;DHT22;27758;55.900;8.516;2023-07-20T06:38:29;16.20;99.90
42099;DHT22;27758;55.900;8.516;2023-07-20T06:40:55;15.90;99.90
42099;DHT22;27758;55.900;8.516;2023-07-20T06:43:21;15.70;99.90
42099;DHT22;27758;55.900;8.516;2023-07-20T06:45:51;15.70;99.90
42099;DHT22;27758;55.900;8.516;2023-07-20T06:48:18;15.60;99.90
42099;DHT22;27758;55.900;8.516;2023-07-20T06:50:43;15.70;99.90
42099;DHT22;27758;55.900;8.516;2023-07-20T06:53:09;15.70;99.90
42099;DHT22;27758;55.900;8.516;2023-07-20T06:55:35;15.60;99.90
42099;DHT22;27758;55.900;8.516;2023-07-20T06:58:00;15.50;99.90
42099;DHT22;27758;55.900;8.516;2023-07-20T07:00:26;15.50;99.90
42099;DHT22;27758;55.900;8.516;2023-07-20T07:02:52;15.40;99.90
42099;DHT22;27758;55.900;8.516;2023-07-20T07:05:17;15.40;99.90
42099;DHT22;27758;55.900;8.516;2023-07-20T07:07:44;15.40;99.90
42099;DHT22;27758;55.900;8.516;2023-07-20T07:10:09;15.30;99.90
42099;DHT22;27758;55.900;8.516;2023-07-20T07:12:35;15.10;99.90
42099;DHT22;27758;55.900;8.516;2023-07-20T07:15:04;15.00;99.90
42099;DHT22;27758;55.900;8.516;2023-07-20T07:17:32;15.10;99.90
42099;DHT22;27758;55.900;8.516;2023-07-20T07:19:58;15.00;99.90
42099;DHT22;27758;55.900;8.516;2023-07-20T07:22:24;15.10;99.90
42099;DHT22;27758;55.900;8.516;2023-07-20T07:24:50;15.20;99.90
42099;DHT22;27758;55.900;8.516;2023-07-20T07:27:16;15.30;99.90
42099;DHT22;27758;55.900;8.516;2023-07-20T07:29:42;15.30;99.90
42099;DHT22;27758;55.900;8.516;2023-07-20T07:32:12;15.50;99.90
42099;DHT22;27758;55.900;8.516;2023-07-20T07:34:38;15.60;99.90
42099;DHT22;27758;55.900;8.516;2023-07-20T07:37:04;16.00;99.90
42099;DHT22;27758;55.900;8.516;2023-07-20T07:39:30;16.20;99.90
42099;DHT22;27758;55.900;8.516;2023-07-20T07:41:56;16.50;99.90
42099;DHT22;27758;55.900;8.516;2023-07-20T07:44:22;16.70;99.90
42099;DHT22;27758;55.900;8.516;2023-07-20T07:46:51;17.00;99.90
42099;DHT22;27758;55.900;8.516;2023-07-20T07:49:17;17.30;99.90
42099;DHT22;27758;55.900;8.516;2023-07-20T07:51:44;17.10;99.90
42099;DHT22;27758;55.900;8.516;2023-07-20T07:54:10;16.80;99.90
42099;DHT22;27758;55.900;8.516;2023-07-20T07:56:36;16.60;99.90
42099;DHT22;27758;55.900;8.516;2023-07-20T07:59:02;16.40;99.90
42099;DHT22;27758;55.900;8.516;2023-07-20T08:01:28;16.30;99.90
42099;DHT22;27758;55.900;8.516;2023-07-20T08:03:54;16.40;99.90
42099;DHT22;27758;55.900;8.516;2023-07-20T08:06:20;16.80;99.90
42099;DHT22;27758;55.900;8.516;2023-07-20T08:08:45;17.10;99.90
42099;DHT22;27758;55.900;8.516;2023-07-20T08:11:11;17.10;99.90
42099;DHT22;27758;55.900;8.516;2023-07-20T08:13:37;17.10;99.90
42099;DHT22;27758;55.900;8.516;2023-07-20T08:16:02;17.10;99.90
42099;DHT22;27758;55.900;8.516;2023-07-20T08:18:28;17.20;99.90
42099;DHT22;27758;55.900;8.516;2023-07-20T08:20:54;17.10;99.90
42099;DHT22;27758;55.900;8.516;2023-07-20T08:23:20;17.00;99.90
42099;DHT22;27758;55.900;8.516;2023-07-20T08:25:46;16.90;99.90
42099;DHT22;27758;55.900;8.516;2023-07-20T08:28:14;16.80;99.90
42099;DHT22;27758;55.900;8.516;2023-07-20T08:30:41;16.90;99.90
42099;DHT22;27758;55.900;8.516;2023-07-20T08:33:08;16.80;99.90
42099;DHT22;27758;55.900;8.516;2023-07-20T08:35:34;16.80;99.90
42099;DHT22;27758;55.900;8.516;2023-07-20T08:38:00;17.00;99.90
42099;DHT22;27758;55.900;8.516;2023-07-20T08:40:26;17.50;99.90
42099;DHT22;27758;55.900;8.516;2023-07-20T08:42:53;17.80;99.90
42099;DHT22;27758;55.900;8.516;2023-07-20T08:45:20;17.70;99.90
42099;DHT22;27758;55.900;8.516;2023-07-20T08:47:47;17.60;99.90
42099;DHT22;27758;55.900;8.516;2023-07-20T08:50:15;17.50;99.90
42099;DHT22;27758;55.900;8.516;2023-07-20T08:52:41;17.50;99.90
42099;DHT22;27758;55.900;8.516;2023-07-20T08:55:07;17.80;99.90
42099;DHT22;27758;55.900;8.516;2023-07-20T08:57:34;18.40;99.90
42099;DHT22;27758;55.900;8.516;2023-07-20T09:00:03;18.40;99.90
42099;DHT22;27758;55.900;8.516;2023-07-20T09:02:39;18.30;99.90
42099;DHT22;27758;55.900;8.516;2023-07-20T09:05:08;18.30;99.90
42099;DHT22;27758;55.900;8.516;2023-07-20T09:07:36;18.30;99.90
42099;DHT22;27758;55.900;8.516;2023-07-20T09:10:02;18.20;99.90
42099;DHT22;27758;55.900;8.516;2023-07-20T09:12:39;18.00;99.90
42099;DHT22;27758;55.900;8.516;2023-07-20T09:15:05;18.00;99.90
42099;DHT22;27758;55.900;8.516;2023-07-20T09:17:31;18.00;99.90
42099;DHT22;27758;55.900;8.516;2023-07-20T09:19:57;18.10;99.90
42099;DHT22;27758;55.900;8.516;2023-07-20T09:22:29;18.20;99.90
42099;DHT22;27758;55.900;8.516;2023-07-20T09:24:56;18.70;99.90
42099;DHT22;27758;55.900;8.516;2023-07-20T09:27:22;18.60;99.90
42099;DHT22;27758;55.900;8.516;2023-07-20T09:29:49;18.40;99.90
42099;DHT22;27758;55.900;8.516;2023-07-20T09:32:21;18.50;99.90
42099;DHT22;27758;55.900;8.516;2023-07-20T09:34:47;18.30;99.90
42099;DHT22;27758;55.900;8.516;2023-07-20T09:37:22;17.80;99.90
42099;DHT22;27758;55.900;8.516;2023-07-20T09:39:48;17.60;99.90
42099;DHT22;27758;55.900;8.516;2023-07-20T09:42:16;17.40;99.90
42099;DHT22;27758;55.900;8.516;2023-07-20T09:44:45;17.30;99.90
42099;DHT22;27758;55.900;8.516;2023-07-20T09:47:11;17.20;99.90
42099;DHT22;27758;55.900;8.516;2023-07-20T09:49:42;17.20;99.90
42099;DHT22;27758;55.900;8.516;2023-07-20T09:52:09;17.60;99.90
42099;DHT22;27758;55.900;8.516;2023-07-20T09:54:38;18.30;99.90
42099;DHT22;27758;55.900;8.516;2023-07-20T09:57:09;18.90;99.90
42099;DHT22;27758;55.900;8.516;2023-07-20T09:59:36;19.50;99.90
42099;DHT22;27758;55.900;8.516;2023-07-20T10:02:07;19.50;99.90
42099;DHT22;27758;55.900;8.516;2023-07-20T10:04:37;19.70;99.90
42099;DHT22;27758;55.900;8.516;2023-07-20T10:07:05;19.50;99.90
42099;DHT22;27758;55.900;8.516;2023-07-20T10:09:37;19.30;99.90
42099;DHT22;27758;55.900;8.516;2023-07-20T10:12:05;19.20;99.90
42099;DHT22;27758;55.900;8.516;2023-07-20T10:14:35;19.50;99.90
42099;DHT22;27758;55.900;8.516;2023-07-20T10:17:04;19.40;99.90
42099;DHT22;27758;55.900;8.516;2023-07-20T10:19:47;19.30;99.90
42099;DHT22;27758;55.900;8.516;2023-07-20T10:22:17;19.20;99.90
42099;DHT22;27758;55.900;8.516;2023-07-20T10:24:46;19.30;99.90
42099;DHT22;27758;55.900;8.516;2023-07-20T10:27:13;19.20;99.90
42099;DHT22;27758;55.900;8.516;2023-07-20T10:29:40;19.00;99.90
42099;DHT22;27758;55.900;8.516;2023-07-20T10:32:09;19.40;99.90
42099;DHT22;27758;55.900;8.516;2023-07-20T10:34:35;19.80;99.90
42099;DHT22;27758;55.900;8.516;2023-07-20T10:37:04;19.60;99.90
42099;DHT22;27758;55.900;8.516;2023-07-20T10:39:33;19.60;99.90
42099;DHT22;27758;55.900;8.516;2023-07-20T10:42:06;19.50;99.90
42099;DHT22;27758;55.900;8.516;2023-07-20T10:44:33;19.20;99.90
42099;DHT22;27758;55.900;8.516;2023-07-20T10:47:07;19.10;99.90
42099;DHT22;27758;55.900;8.516;2023-07-20T10:49:34;19.30;99.90
42099;DHT22;27758;55.900;8.516;2023-07-20T10:52:04;19.80;99.90
42099;DHT22;27758;55.900;8.516;2023-07-20T10:56:58;19.60;99.90
42099;DHT22;27758;55.900;8.516;2023-07-20T10:59:42;19.40;99.90
42099;DHT22;27758;55.900;8.516;2023-07-20T11:02:08;19.70;99.90
42099;DHT22;27758;55.900;8.516;2023-07-20T11:04:41;19.60;99.90
42099;DHT22;27758;55.900;8.516;2023-07-20T11:07:08;19.40;99.90
42099;DHT22;27758;55.900;8.516;2023-07-20T11:09:35;19.40;99.90
42099;DHT22;27758;55.900;8.516;2023-07-20T11:12:17;19.50;99.90
42099;DHT22;27758;55.900;8.516;2023-07-20T11:15:03;19.50;99.90
42099;DHT22;27758;55.900;8.516;2023-07-20T11:17:30;19.40;99.90
42099;DHT22;27758;55.900;8.516;2023-07-20T11:20:00;19.40;99.90
42099;DHT22;27758;55.900;8.516;2023-07-20T11:22:31;19.30;99.90
42099;DHT22;27758;55.900;8.516;2023-07-20T11:24:58;19.70;99.90
42099;DHT22;27758;55.900;8.516;2023-07-20T11:27:24;19.70;99.90
42099;DHT22;27758;55.900;8.516;2023-07-20T11:29:50;19.70;99.90
42099;DHT22;27758;55.900;8.516;2023-07-20T11:32:23;19.70;99.90
42099;DHT22;27758;55.900;8.516;2023-07-20T11:34:49;20.00;99.90
42099;DHT22;27758;55.900;8.516;2023-07-20T11:37:16;19.80;99.90
42099;DHT22;27758;55.900;8.516;2023-07-20T11:39:42;19.50;99.90
42099;DHT22;27758;55.900;8.516;2023-07-20T11:42:08;19.30;99.90
42099;DHT22;27758;55.900;8.516;2023-07-20T11:44:34;19.00;99.90
42099;DHT22;27758;55.900;8.516;2023-07-20T11:47:04;18.70;99.90
42099;DHT22;27758;55.900;8.516;2023-07-20T11:49:35;18.50;99.90
42099;DHT22;27758;55.900;8.516;2023-07-20T11:52:02;18.30;99.90
42099;DHT22;27758;55.900;8.516;2023-07-20T11:54:28;18.30;99.90
42099;DHT22;27758;55.900;8.516;2023-07-20T11:56:55;18.10;99.90
42099;DHT22;27758;55.900;8.516;2023-07-20T11:59:23;18.10;99.90
42099;DHT22;27758;55.900;8.516;2023-07-20T12:01:49;18.10;99.90
42099;DHT22;27758;55.900;8.516;2023-07-20T12:04:15;18.30;99.90
42099;DHT22;27758;55.900;8.516;2023-07-20T12:06:40;18.50;99.90
42099;DHT22;27758;55.900;8.516;2023-07-20T12:09:13;18.50;99.90
42099;DHT22;27758;55.900;8.516;2023-07-20T12:11:39;18.40;99.90
42099;DHT22;27758;55.900;8.516;2023-07-20T12:14:09;18.30;99.90
42099;DHT22;27758;55.900;8.516;2023-07-20T12:16:37;18.50;99.90
42099;DHT22;27758;55.900;8.516;2023-07-20T12:19:11;18.60;99.90
42099;DHT22;27758;55.900;8.516;2023-07-20T12:21:39;18.50;99.90
42099;DHT22;27758;55.900;8.516;2023-07-20T12:24:07;18.30;99.90
42099;DHT22;27758;55.900;8.516;2023-07-20T12:26:34;18.20;99.90
42099;DHT22;27758;55.900;8.516;2023-07-20T12:29:01;17.90;99.90
42099;DHT22;27758;55.900;8.516;2023-07-20T12:31:27;17.90;99.90
42099;DHT22;27758;55.900;8.516;2023-07-20T12:33:53;17.70;99.90
42099;DHT22;27758;55.900;8.516;2023-07-20T12:36:22;17.50;99.90
42099;DHT22;27758;55.900;8.516;2023-07-20T12:38:48;17.30;99.90
42099;DHT22;27758;55.900;8.516;2023-07-20T12:41:14;17.20;99.90
42099;DHT22;27758;55.900;8.516;2023-07-20T12:43:44;17.30;99.90
42099;DHT22;27758;55.900;8.516;2023-07-20T12:46:10;17.30;99.90
42099;DHT22;27758;55.900;8.516;2023-07-20T12:48:40;17.20;99.90
42099;DHT22;27758;55.900;8.516;2023-07-20T12:51:08;17.10;99.90
42099;DHT22;27758;55.900;8.516;2023-07-20T12:53:34;17.10;99.90
42099;DHT22;27758;55.900;8.516;2023-07-20T12:56:00;17.00;99.90
42099;DHT22;27758;55.900;8.516;2023-07-20T12:58:26;17.30;99.90
42099;DHT22;27758;55.900;8.516;2023-07-20T13:00:51;17.50;99.90
42099;DHT22;27758;55.900;8.516;2023-07-20T13:03:17;17.70;99.90
42099;DHT22;27758;55.900;8.516;2023-07-20T13:05:47;17.80;99.90
42099;DHT22;27758;55.900;8.516;2023-07-20T13:08:14;18.00;99.90
42099;DHT22;27758;55.900;8.516;2023-07-20T13:10:40;18.30;99.90
42099;DHT22;27758;55.900;8.516;2023-07-20T13:13:06;18.60;99.90
42099;DHT22;27758;55.900;8.516;2023-07-20T13:15:40;18.70;99.90
42099;DHT22;27758;55.900;8.516;2023-07-20T13:18:06;18.80;99.90
42099;DHT22;27758;55.900;8.516;2023-07-20T13:20:32;18.90;99.90
42099;DHT22;27758;55.900;8.516;2023-07-20T13:22:57;18.80;99.90
42099;DHT22;27758;55.900;8.516;2023-07-20T13:25:23;18.60;99.90
42099;DHT22;27758;55.900;8.516;2023-07-20T13:27:49;18.40;99.90
42099;DHT22;27758;55.900;8.516;2023-07-20T13:30:15;18.30;99.90
42099;DHT22;27758;55.900;8.516;2023-07-20T13:32:48;18.20;99.90
42099;DHT22;27758;55.900;8.516;2023-07-20T13:35:13;18.20;99.90
42099;DHT22;27758;55.900;8.516;2023-07-20T13:37:40;18.10;99.90
42099;DHT22;27758;55.900;8.516;2023-07-20T13:40:06;18.00;99.90
42099;DHT22;27758;55.900;8.516;2023-07-20T13:42:33;18.10;99.90
42099;DHT22;27758;55.900;8.516;2023-07-20T13:44:59;18.10;99.90
42099;DHT22;27758;55.900;8.516;2023-07-20T13:47:29;18.00;99.90
42099;DHT22;27758;55.900;8.516;2023-07-20T13:50:01;18.00;99.90
42099;DHT22;27758;55.900;8.516;2023-07-20T13:52:26;17.80;99.90
42099;DHT22;27758;55.900;8.516;2023-07-20T13:54:52;17.70;99.90
42099;DHT22;27758;55.900;8.516;2023-07-20T13:57:18;18.00;99.90
42099;DHT22;27758;55.900;8.516;2023-07-20T13:59:43;18.30;99.90
42099;DHT22;27758;55.900;8.516;2023-07-20T14:02:10;18.60;99.90
42099;DHT22;27758;55.900;8.516;2023-07-20T14:04:36;18.60;99.90
42099;DHT22;27758;55.900;8.516;2023-07-20T14:07:01;18.40;99.90
42099;DHT22;27758;55.900;8.516;2023-07-20T14:09:27;18.20;99.90
42099;DHT22;27758;55.900;8.516;2023-07-20T14:11:53;17.90;99.90
42099;DHT22;27758;55.900;8.516;2023-07-20T14:14:18;17.70;99.90
42099;DHT22;27758;55.900;8.516;2023-07-20T14:16:44;17.60;99.90
42099;DHT22;27758;55.900;8.516;2023-07-20T14:19:10;17.60;99.90
42099;DHT22;27758;55.900;8.516;2023-07-20T14:21:35;17.70;99.90
42099;DHT22;27758;55.900;8.516;2023-07-20T14:24:01;17.90;99.90
42099;DHT22;27758;55.900;8.516;2023-07-20T14:26:27;18.10;99.90
42099;DHT22;27758;55.900;8.516;2023-07-20T14:28:53;18.30;99.90
42099;DHT22;27758;55.900;8.516;2023-07-20T14:31:19;18.50;99.90
42099;DHT22;27758;55.900;8.516;2023-07-20T14:33:45;18.60;99.90
42099;DHT22;27758;55.900;8.516;2023-07-20T14:36:11;18.60;99.90
42099;DHT22;27758;55.900;8.516;2023-07-20T14:38:37;18.60;99.90
42099;DHT22;27758;55.900;8.516;2023-07-20T14:41:03;18.60;99.90
42099;DHT22;27758;55.900;8.516;2023-07-20T14:43:29;18.60;99.90
42099;DHT22;27758;55.900;8.516;2023-07-20T14:45:55;18.50;99.90
42099;DHT22;27758;55.900;8.516;2023-07-20T14:48:20;18.60;99.90
42099;DHT22;27758;55.900;8.516;2023-07-20T14:50:48;18.60;99.90
42099;DHT22;27758;55.900;8.516;2023-07-20T14:53:14;18.60;99.90
42099;DHT22;27758;55.900;8.516;2023-07-20T14:55:41;18.50;99.90
42099;DHT22;27758;55.900;8.516;2023-07-20T14:58:07;18.50;99.90
42099;DHT22;27758;55.900;8.516;2023-07-20T15:00:32;18.70;99.90
42099;DHT22;27758;55.900;8.516;2023-07-20T15:02:58;18.80;99.90
42099;DHT22;27758;55.900;8.516;2023-07-20T15:05:24;18.80;99.90
42099;DHT22;27758;55.900;8.516;2023-07-20T15:07:52;18.80;99.90
42099;DHT22;27758;55.900;8.516;2023-07-20T15:10:17;18.80;99.90
42099;DHT22;27758;55.900;8.516;2023-07-20T15:12:43;18.70;99.90
42099;DHT22;27758;55.900;8.516;2023-07-20T15:15:11;18.80;99.90
42099;DHT22;27758;55.900;8.516;2023-07-20T15:17:40;18.80;99.90
42099;DHT22;27758;55.900;8.516;2023-07-20T15:20:07;18.90;99.90
42099;DHT22;27758;55.900;8.516;2023-07-20T15:22:34;19.00;99.90
42099;DHT22;27758;55.900;8.516;2023-07-20T15:25:02;18.90;99.90
42099;DHT22;27758;55.900;8.516;2023-07-20T15:27:27;18.60;99.90
42099;DHT22;27758;55.900;8.516;2023-07-20T15:29:53;18.60;99.90
42099;DHT22;27758;55.900;8.516;2023-07-20T15:32:19;18.60;99.90
42099;DHT22;27758;55.900;8.516;2023-07-20T15:34:45;18.40;99.90
42099;DHT22;27758;55.900;8.516;2023-07-20T15:37:11;18.40;99.90
42099;DHT22;27758;55.900;8.516;2023-07-20T15:39:38;18.30;99.90
42099;DHT22;27758;55.900;8.516;2023-07-20T15:42:07;18.20;99.90
42099;DHT22;27758;55.900;8.516;2023-07-20T15:44:33;18.20;99.90